sensor_id;sensor_type;location;lat;lon;timestamp;P1;durP1;ratioP1;P2;durP2;ratioP2
12703;SDS011;6416;52.182;7.650;2023-11-19T00:01:46;5.27;;;4.97;;
12703;SDS011;6416;52.182;7.650;2023-11-19T00:04:12;5.03;;;4.73;;
12703;SDS011;6416;52.182;7.650;2023-11-19T00:06:37;5.00;;;4.67;;
12703;SDS011;6416;52.182;7.650;2023-11-19T00:09:03;5.37;;;4.97;;
12703;SDS011;6416;52.182;7.650;2023-11-19T00:11:28;5.13;;;4.83;;
12703;SDS011;6416;52.182;7.650;2023-11-19T00:13:53;5.07;;;4.77;;
12703;SDS011;6416;52.182;7.650;2023-11-19T00:16:19;5.07;;;4.70;;
12703;SDS011;6416;52.182;7.650;2023-11-19T00:18:45;4.83;;;4.53;;
12703;SDS011;6416;52.182;7.650;2023-11-19T00:21:10;5.00;;;4.60;;
12703;SDS011;6416;52.182;7.650;2023-11-19T00:23:36;5.07;;;4.73;;
12703;SDS011;6416;52.182;7.650;2023-11-19T00:26:02;5.00;;;4.70;;
12703;SDS011;6416;52.182;7.650;2023-11-19T00:28:27;4.97;;;4.67;;
12703;SDS011;6416;52.182;7.650;2023-11-19T00:30:53;5.67;;;4.90;;
12703;SDS011;6416;52.182;7.650;2023-11-19T00:33:18;5.37;;;5.07;;
12703;SDS011;6416;52.182;7.650;2023-11-19T00:35:44;4.87;;;4.47;;
12703;SDS011;6416;52.182;7.650;2023-11-19T00:38:09;4.90;;;4.50;;
12703;SDS011;6416;52.182;7.650;2023-11-19T00:40:35;5.10;;;4.70;;
12703;SDS011;6416;52.182;7.650;2023-11-19T00:43:00;5.07;;;4.73;;
12703;SDS011;6416;52.182;7.650;2023-11-19T00:45:26;5.50;;;5.10;;
12703;SDS011;6416;52.182;7.650;2023-11-19T00:47:51;5.80;;;5.30;;
12703;SDS011;6416;52.182;7.650;2023-11-19T00:50:17;4.87;;;4.57;;
12703;SDS011;6416;52.182;7.650;2023-11-19T00:52:42;5.10;;;4.70;;
12703;SDS011;6416;52.182;7.650;2023-11-19T00:55:08;4.97;;;4.67;;
12703;SDS011;6416;52.182;7.650;2023-11-19T00:57:34;5.37;;;4.97;;
12703;SDS011;6416;52.182;7.650;2023-11-19T00:59:59;5.00;;;4.60;;
12703;SDS011;6416;52.182;7.650;2023-11-19T01:02:25;5.30;;;4.90;;
12703;SDS011;6416;52.182;7.650;2023-11-19T01:04:50;5.73;;;5.33;;
12703;SDS011;6416;52.182;7.650;2023-11-19T01:07:16;5.57;;;5.17;;
12703;SDS011;6416;52.182;7.650;2023-11-19T01:09:42;5.97;;;5.50;;
12703;SDS011;6416;52.182;7.650;2023-11-19T01:12:07;5.67;;;5.20;;
12703;SDS011;6416;52.182;7.650;2023-11-19T01:14:33;6.60;;;6.10;;
12703;SDS011;6416;52.182;7.650;2023-11-19T01:16:58;6.67;;;6.07;;
12703;SDS011;6416;52.182;7.650;2023-11-19T01:19:25;6.07;;;5.57;;
12703;SDS011;6416;52.182;7.650;2023-11-19T01:21:51;6.83;;;6.27;;
12703;SDS011;6416;52.182;7.650;2023-11-19T01:24:16;7.13;;;6.53;;
12703;SDS011;6416;52.182;7.650;2023-11-19T01:26:43;7.40;;;6.80;;
12703;SDS011;6416;52.182;7.650;2023-11-19T01:29:08;7.93;;;7.33;;
12703;SDS011;6416;52.182;7.650;2023-11-19T01:31:34;7.73;;;7.07;;
12703;SDS011;6416;52.182;7.650;2023-11-19T01:33:59;7.93;;;7.33;;
12703;SDS011;6416;52.182;7.650;2023-11-19T01:36:28;8.20;;;7.53;;
12703;SDS011;6416;52.182;7.650;2023-11-19T01:38:53;8.23;;;7.53;;
12703;SDS011;6416;52.182;7.650;2023-11-19T01:41:19;8.43;;;7.73;;
12703;SDS011;6416;52.182;7.650;2023-11-19T01:43:44;9.07;;;8.37;;
12703;SDS011;6416;52.182;7.650;2023-11-19T01:46:12;9.00;;;8.30;;
12703;SDS011;6416;52.182;7.650;2023-11-19T01:48:41;8.80;;;8.10;;
12703;SDS011;6416;52.182;7.650;2023-11-19T01:51:09;9.17;;;8.47;;
12703;SDS011;6416;52.182;7.650;2023-11-19T01:53:36;9.40;;;8.47;;
12703;SDS011;6416;52.182;7.650;2023-11-19T01:56:03;8.50;;;7.80;;
12703;SDS011;6416;52.182;7.650;2023-11-19T01:58:31;9.60;;;8.80;;
12703;SDS011;6416;52.182;7.650;2023-11-19T02:00:56;9.10;;;8.23;;
12703;SDS011;6416;52.182;7.650;2023-11-19T02:03:22;8.90;;;8.20;;
12703;SDS011;6416;52.182;7.650;2023-11-19T02:05:49;9.10;;;8.30;;
12703;SDS011;6416;52.182;7.650;2023-11-19T02:08:14;9.80;;;8.40;;
12703;SDS011;6416;52.182;7.650;2023-11-19T02:10:40;8.77;;;8.07;;
12703;SDS011;6416;52.182;7.650;2023-11-19T02:13:05;9.57;;;8.50;;
12703;SDS011;6416;52.182;7.650;2023-11-19T02:15:31;8.47;;;7.77;;
12703;SDS011;6416;52.182;7.650;2023-11-19T02:17:57;8.23;;;7.53;;
12703;SDS011;6416;52.182;7.650;2023-11-19T02:20:41;8.50;;;7.80;;
12703;SDS011;6416;52.182;7.650;2023-11-19T02:23:07;9.20;;;8.33;;
12703;SDS011;6416;52.182;7.650;2023-11-19T02:25:32;8.33;;;7.63;;
12703;SDS011;6416;52.182;7.650;2023-11-19T02:27:59;8.93;;;8.20;;
12703;SDS011;6416;52.182;7.650;2023-11-19T02:30:26;9.23;;;8.43;;
12703;SDS011;6416;52.182;7.650;2023-11-19T02:32:54;8.77;;;7.97;;
12703;SDS011;6416;52.182;7.650;2023-11-19T02:35:21;9.03;;;8.23;;
12703;SDS011;6416;52.182;7.650;2023-11-19T02:37:46;8.70;;;7.80;;
12703;SDS011;6416;52.182;7.650;2023-11-19T02:40:12;9.63;;;8.13;;
12703;SDS011;6416;52.182;7.650;2023-11-19T02:42:37;9.30;;;8.43;;
12703;SDS011;6416;52.182;7.650;2023-11-19T02:45:03;8.47;;;7.70;;
12703;SDS011;6416;52.182;7.650;2023-11-19T02:47:29;9.27;;;8.37;;
12703;SDS011;6416;52.182;7.650;2023-11-19T02:49:54;9.93;;;8.07;;
12703;SDS011;6416;52.182;7.650;2023-11-19T02:52:20;9.30;;;8.50;;
12703;SDS011;6416;52.182;7.650;2023-11-19T02:54:45;9.87;;;8.97;;
12703;SDS011;6416;52.182;7.650;2023-11-19T02:57:11;9.90;;;8.97;;
12703;SDS011;6416;52.182;7.650;2023-11-19T02:59:38;9.10;;;8.27;;
12703;SDS011;6416;52.182;7.650;2023-11-19T03:02:04;8.87;;;7.87;;
12703;SDS011;6416;52.182;7.650;2023-11-19T03:04:30;8.97;;;8.10;;
12703;SDS011;6416;52.182;7.650;2023-11-19T03:06:55;8.00;;;7.20;;
12703;SDS011;6416;52.182;7.650;2023-11-19T03:09:21;8.53;;;7.73;;
12703;SDS011;6416;52.182;7.650;2023-11-19T03:11:46;8.83;;;8.00;;
12703;SDS011;6416;52.182;7.650;2023-11-19T03:14:12;7.63;;;6.93;;
12703;SDS011;6416;52.182;7.650;2023-11-19T03:16:37;10.13;;;7.27;;
12703;SDS011;6416;52.182;7.650;2023-11-19T03:19:03;8.00;;;6.90;;
12703;SDS011;6416;52.182;7.650;2023-11-19T03:21:28;8.93;;;7.20;;
12703;SDS011;6416;52.182;7.650;2023-11-19T03:23:54;7.40;;;6.73;;
12703;SDS011;6416;52.182;7.650;2023-11-19T03:26:20;8.80;;;6.63;;
12703;SDS011;6416;52.182;7.650;2023-11-19T03:28:46;7.07;;;5.70;;
12703;SDS011;6416;52.182;7.650;2023-11-19T03:31:11;9.63;;;5.47;;
12703;SDS011;6416;52.182;7.650;2023-11-19T03:33:36;8.77;;;5.93;;
12703;SDS011;6416;52.182;7.650;2023-11-19T03:36:02;7.57;;;5.60;;
12703;SDS011;6416;52.182;7.650;2023-11-19T03:38:28;8.83;;;4.50;;
12703;SDS011;6416;52.182;7.650;2023-11-19T03:40:53;6.57;;;4.73;;
12703;SDS011;6416;52.182;7.650;2023-11-19T03:43:19;8.67;;;4.90;;
12703;SDS011;6416;52.182;7.650;2023-11-19T03:45:44;6.80;;;4.30;;
12703;SDS011;6416;52.182;7.650;2023-11-19T03:48:10;7.63;;;4.73;;
12703;SDS011;6416;52.182;7.650;2023-11-19T03:50:35;7.47;;;4.63;;
12703;SDS011;6416;52.182;7.650;2023-11-19T03:53:00;8.40;;;4.77;;
12703;SDS011;6416;52.182;7.650;2023-11-19T03:55:26;10.07;;;4.90;;
12703;SDS011;6416;52.182;7.650;2023-11-19T03:57:51;9.10;;;4.73;;
12703;SDS011;6416;52.182;7.650;2023-11-19T04:00:17;14.30;;;4.73;;
12703;SDS011;6416;52.182;7.650;2023-11-19T04:02:42;7.17;;;3.60;;
12703;SDS011;6416;52.182;7.650;2023-11-19T04:05:08;9.80;;;4.20;;
12703;SDS011;6416;52.182;7.650;2023-11-19T04:07:33;13.10;;;4.13;;
12703;SDS011;6416;52.182;7.650;2023-11-19T04:09:59;9.30;;;4.07;;
12703;SDS011;6416;52.182;7.650;2023-11-19T04:12:24;10.00;;;3.83;;
12703;SDS011;6416;52.182;7.650;2023-11-19T04:14:50;11.17;;;3.60;;
12703;SDS011;6416;52.182;7.650;2023-11-19T04:17:15;8.67;;;3.90;;
12703;SDS011;6416;52.182;7.650;2023-11-19T04:19:41;8.77;;;3.87;;
12703;SDS011;6416;52.182;7.650;2023-11-19T04:22:07;9.77;;;3.90;;
12703;SDS011;6416;52.182;7.650;2023-11-19T04:24:32;11.73;;;4.43;;
12703;SDS011;6416;52.182;7.650;2023-11-19T04:26:58;7.80;;;3.33;;
12703;SDS011;6416;52.182;7.650;2023-11-19T04:29:23;9.17;;;3.77;;
12703;SDS011;6416;52.182;7.650;2023-11-19T04:31:49;9.63;;;3.90;;
12703;SDS011;6416;52.182;7.650;2023-11-19T04:34:14;8.60;;;3.30;;
12703;SDS011;6416;52.182;7.650;2023-11-19T04:36:40;9.03;;;3.30;;
12703;SDS011;6416;52.182;7.650;2023-11-19T04:39:05;8.43;;;3.67;;
12703;SDS011;6416;52.182;7.650;2023-11-19T04:41:31;6.80;;;3.30;;
12703;SDS011;6416;52.182;7.650;2023-11-19T04:43:56;9.63;;;3.80;;
12703;SDS011;6416;52.182;7.650;2023-11-19T04:46:22;6.87;;;3.50;;
12703;SDS011;6416;52.182;7.650;2023-11-19T04:48:47;10.70;;;3.53;;
12703;SDS011;6416;52.182;7.650;2023-11-19T04:51:13;10.70;;;4.00;;
12703;SDS011;6416;52.182;7.650;2023-11-19T04:53:38;9.53;;;3.40;;
12703;SDS011;6416;52.182;7.650;2023-11-19T04:56:10;11.03;;;3.70;;
12703;SDS011;6416;52.182;7.650;2023-11-19T04:58:36;12.40;;;3.57;;
12703;SDS011;6416;52.182;7.650;2023-11-19T05:01:05;8.83;;;3.60;;
12703;SDS011;6416;52.182;7.650;2023-11-19T05:03:31;8.63;;;3.20;;
12703;SDS011;6416;52.182;7.650;2023-11-19T05:05:59;8.03;;;3.40;;
12703;SDS011;6416;52.182;7.650;2023-11-19T05:08:25;13.43;;;3.80;;
12703;SDS011;6416;52.182;7.650;2023-11-19T05:10:50;10.90;;;3.30;;
12703;SDS011;6416;52.182;7.650;2023-11-19T05:13:16;9.23;;;3.37;;
12703;SDS011;6416;52.182;7.650;2023-11-19T05:15:41;8.53;;;3.03;;
12703;SDS011;6416;52.182;7.650;2023-11-19T05:18:06;9.33;;;2.97;;
12703;SDS011;6416;52.182;7.650;2023-11-19T05:20:32;15.23;;;4.23;;
12703;SDS011;6416;52.182;7.650;2023-11-19T05:22:58;12.00;;;3.77;;
12703;SDS011;6416;52.182;7.650;2023-11-19T05:25:23;11.67;;;3.63;;
12703;SDS011;6416;52.182;7.650;2023-11-19T05:27:49;13.40;;;3.77;;
12703;SDS011;6416;52.182;7.650;2023-11-19T05:30:14;11.53;;;3.50;;
12703;SDS011;6416;52.182;7.650;2023-11-19T05:32:40;13.87;;;3.77;;
12703;SDS011;6416;52.182;7.650;2023-11-19T05:35:06;15.80;;;3.80;;
12703;SDS011;6416;52.182;7.650;2023-11-19T05:37:32;15.63;;;3.97;;
12703;SDS011;6416;52.182;7.650;2023-11-19T05:39:58;17.30;;;4.33;;
12703;SDS011;6416;52.182;7.650;2023-11-19T05:42:23;17.33;;;4.53;;
12703;SDS011;6416;52.182;7.650;2023-11-19T05:44:48;12.43;;;4.33;;
12703;SDS011;6416;52.182;7.650;2023-11-19T05:47:14;20.93;;;5.13;;
12703;SDS011;6416;52.182;7.650;2023-11-19T05:49:39;15.53;;;4.57;;
12703;SDS011;6416;52.182;7.650;2023-11-19T05:52:05;13.07;;;3.73;;
12703;SDS011;6416;52.182;7.650;2023-11-19T05:54:31;14.70;;;4.03;;
12703;SDS011;6416;52.182;7.650;2023-11-19T05:56:56;18.23;;;4.50;;
12703;SDS011;6416;52.182;7.650;2023-11-19T05:59:22;13.53;;;3.97;;
12703;SDS011;6416;52.182;7.650;2023-11-19T06:01:47;13.60;;;4.23;;
12703;SDS011;6416;52.182;7.650;2023-11-19T06:04:13;14.00;;;3.77;;
12703;SDS011;6416;52.182;7.650;2023-11-19T06:06:38;12.20;;;3.40;;
12703;SDS011;6416;52.182;7.650;2023-11-19T06:09:04;14.23;;;3.80;;
12703;SDS011;6416;52.182;7.650;2023-11-19T06:11:29;14.57;;;4.40;;
12703;SDS011;6416;52.182;7.650;2023-11-19T06:13:55;22.00;;;5.17;;
12703;SDS011;6416;52.182;7.650;2023-11-19T06:16:20;12.73;;;4.07;;
12703;SDS011;6416;52.182;7.650;2023-11-19T06:18:46;13.70;;;4.30;;
12703;SDS011;6416;52.182;7.650;2023-11-19T06:21:12;17.80;;;4.00;;
12703;SDS011;6416;52.182;7.650;2023-11-19T06:23:38;13.87;;;4.03;;
12703;SDS011;6416;52.182;7.650;2023-11-19T06:26:03;16.30;;;4.60;;
12703;SDS011;6416;52.182;7.650;2023-11-19T06:28:29;16.73;;;4.67;;
12703;SDS011;6416;52.182;7.650;2023-11-19T06:30:54;18.17;;;4.27;;
12703;SDS011;6416;52.182;7.650;2023-11-19T06:33:20;19.63;;;4.90;;
12703;SDS011;6416;52.182;7.650;2023-11-19T06:35:45;17.80;;;4.43;;
12703;SDS011;6416;52.182;7.650;2023-11-19T06:38:11;13.73;;;4.23;;
12703;SDS011;6416;52.182;7.650;2023-11-19T06:40:36;14.80;;;4.10;;
12703;SDS011;6416;52.182;7.650;2023-11-19T06:43:02;19.53;;;4.63;;
12703;SDS011;6416;52.182;7.650;2023-11-19T06:45:28;13.20;;;4.10;;
12703;SDS011;6416;52.182;7.650;2023-11-19T06:47:53;13.90;;;4.03;;
12703;SDS011;6416;52.182;7.650;2023-11-19T06:50:19;14.67;;;4.63;;
12703;SDS011;6416;52.182;7.650;2023-11-19T06:52:45;19.70;;;4.63;;
12703;SDS011;6416;52.182;7.650;2023-11-19T06:55:11;15.50;;;4.77;;
12703;SDS011;6416;52.182;7.650;2023-11-19T06:57:36;20.83;;;4.83;;
12703;SDS011;6416;52.182;7.650;2023-11-19T07:00:02;19.40;;;4.70;;
12703;SDS011;6416;52.182;7.650;2023-11-19T07:02:28;24.53;;;5.17;;
12703;SDS011;6416;52.182;7.650;2023-11-19T07:04:54;23.23;;;5.00;;
12703;SDS011;6416;52.182;7.650;2023-11-19T07:07:19;16.47;;;4.43;;
12703;SDS011;6416;52.182;7.650;2023-11-19T07:09:45;19.73;;;4.17;;
12703;SDS011;6416;52.182;7.650;2023-11-19T07:12:10;16.70;;;4.47;;
12703;SDS011;6416;52.182;7.650;2023-11-19T07:14:36;16.80;;;4.40;;
12703;SDS011;6416;52.182;7.650;2023-11-19T07:17:01;16.07;;;4.43;;
12703;SDS011;6416;52.182;7.650;2023-11-19T07:19:27;17.43;;;4.73;;
12703;SDS011;6416;52.182;7.650;2023-11-19T07:21:52;21.63;;;4.50;;
12703;SDS011;6416;52.182;7.650;2023-11-19T07:24:18;18.33;;;4.83;;
12703;SDS011;6416;52.182;7.650;2023-11-19T07:26:43;18.63;;;3.90;;
12703;SDS011;6416;52.182;7.650;2023-11-19T07:29:11;16.70;;;4.80;;
12703;SDS011;6416;52.182;7.650;2023-11-19T07:31:36;16.20;;;4.70;;
12703;SDS011;6416;52.182;7.650;2023-11-19T07:34:02;15.97;;;4.13;;
12703;SDS011;6416;52.182;7.650;2023-11-19T07:36:27;19.50;;;4.93;;
12703;SDS011;6416;52.182;7.650;2023-11-19T07:38:52;20.00;;;4.73;;
12703;SDS011;6416;52.182;7.650;2023-11-19T07:41:18;14.20;;;4.83;;
12703;SDS011;6416;52.182;7.650;2023-11-19T07:43:43;17.43;;;4.63;;
12703;SDS011;6416;52.182;7.650;2023-11-19T07:46:12;17.67;;;4.13;;
12703;SDS011;6416;52.182;7.650;2023-11-19T07:48:39;17.63;;;4.50;;
12703;SDS011;6416;52.182;7.650;2023-11-19T07:51:05;12.00;;;3.87;;
12703;SDS011;6416;52.182;7.650;2023-11-19T07:53:30;16.47;;;4.67;;
12703;SDS011;6416;52.182;7.650;2023-11-19T07:55:56;19.00;;;4.87;;
12703;SDS011;6416;52.182;7.650;2023-11-19T07:58:21;13.77;;;4.10;;
12703;SDS011;6416;52.182;7.650;2023-11-19T08:00:47;18.83;;;4.93;;
12703;SDS011;6416;52.182;7.650;2023-11-19T08:03:12;15.10;;;4.27;;
12703;SDS011;6416;52.182;7.650;2023-11-19T08:05:38;16.30;;;4.30;;
12703;SDS011;6416;52.182;7.650;2023-11-19T08:08:03;21.87;;;5.60;;
12703;SDS011;6416;52.182;7.650;2023-11-19T08:10:29;16.53;;;4.40;;
12703;SDS011;6416;52.182;7.650;2023-11-19T08:12:54;17.47;;;4.17;;
12703;SDS011;6416;52.182;7.650;2023-11-19T08:15:20;18.03;;;4.53;;
12703;SDS011;6416;52.182;7.650;2023-11-19T08:17:45;16.47;;;4.80;;
12703;SDS011;6416;52.182;7.650;2023-11-19T08:20:11;17.00;;;4.50;;
12703;SDS011;6416;52.182;7.650;2023-11-19T08:22:37;16.70;;;4.33;;
12703;SDS011;6416;52.182;7.650;2023-11-19T08:25:04;25.27;;;5.40;;
12703;SDS011;6416;52.182;7.650;2023-11-19T08:27:30;17.10;;;4.57;;
12703;SDS011;6416;52.182;7.650;2023-11-19T08:29:55;17.53;;;4.27;;
12703;SDS011;6416;52.182;7.650;2023-11-19T08:32:21;16.17;;;4.10;;
12703;SDS011;6416;52.182;7.650;2023-11-19T08:34:46;19.07;;;4.40;;
12703;SDS011;6416;52.182;7.650;2023-11-19T08:37:12;14.30;;;4.07;;
12703;SDS011;6416;52.182;7.650;2023-11-19T08:39:37;20.07;;;4.27;;
12703;SDS011;6416;52.182;7.650;2023-11-19T08:42:03;16.83;;;4.53;;
12703;SDS011;6416;52.182;7.650;2023-11-19T08:44:28;17.30;;;4.33;;
12703;SDS011;6416;52.182;7.650;2023-11-19T08:46:54;19.43;;;4.60;;
12703;SDS011;6416;52.182;7.650;2023-11-19T08:49:19;16.17;;;4.50;;
12703;SDS011;6416;52.182;7.650;2023-11-19T08:51:45;16.80;;;5.07;;
12703;SDS011;6416;52.182;7.650;2023-11-19T08:54:10;17.87;;;4.73;;
12703;SDS011;6416;52.182;7.650;2023-11-19T08:56:35;18.73;;;4.60;;
12703;SDS011;6416;52.182;7.650;2023-11-19T08:59:01;20.50;;;5.47;;
12703;SDS011;6416;52.182;7.650;2023-11-19T09:01:26;19.70;;;5.13;;
12703;SDS011;6416;52.182;7.650;2023-11-19T09:03:52;16.70;;;4.17;;
12703;SDS011;6416;52.182;7.650;2023-11-19T09:06:17;16.23;;;4.10;;
12703;SDS011;6416;52.182;7.650;2023-11-19T09:08:43;15.77;;;4.40;;
12703;SDS011;6416;52.182;7.650;2023-11-19T09:11:10;14.00;;;4.63;;
12703;SDS011;6416;52.182;7.650;2023-11-19T09:13:35;17.97;;;4.63;;
12703;SDS011;6416;52.182;7.650;2023-11-19T09:16:01;15.63;;;4.47;;
12703;SDS011;6416;52.182;7.650;2023-11-19T09:18:26;15.60;;;5.03;;
12703;SDS011;6416;52.182;7.650;2023-11-19T09:20:52;20.70;;;5.03;;
12703;SDS011;6416;52.182;7.650;2023-11-19T09:23:17;17.03;;;4.57;;
12703;SDS011;6416;52.182;7.650;2023-11-19T09:25:43;22.50;;;5.40;;
12703;SDS011;6416;52.182;7.650;2023-11-19T09:28:08;17.80;;;4.77;;
12703;SDS011;6416;52.182;7.650;2023-11-19T09:30:34;19.77;;;5.00;;
12703;SDS011;6416;52.182;7.650;2023-11-19T09:32:59;20.17;;;5.27;;
12703;SDS011;6416;52.182;7.650;2023-11-19T09:35:25;15.83;;;4.67;;
12703;SDS011;6416;52.182;7.650;2023-11-19T09:37:50;19.63;;;5.33;;
12703;SDS011;6416;52.182;7.650;2023-11-19T09:40:15;22.17;;;4.83;;
12703;SDS011;6416;52.182;7.650;2023-11-19T09:42:44;18.97;;;5.17;;
12703;SDS011;6416;52.182;7.650;2023-11-19T09:45:12;18.43;;;5.10;;
12703;SDS011;6416;52.182;7.650;2023-11-19T09:47:40;19.70;;;4.50;;
12703;SDS011;6416;52.182;7.650;2023-11-19T09:50:08;15.00;;;4.10;;
12703;SDS011;6416;52.182;7.650;2023-11-19T09:52:34;21.43;;;5.17;;
12703;SDS011;6416;52.182;7.650;2023-11-19T09:54:59;16.23;;;5.03;;
12703;SDS011;6416;52.182;7.650;2023-11-19T09:57:25;13.90;;;4.03;;
12703;SDS011;6416;52.182;7.650;2023-11-19T09:59:51;21.50;;;5.50;;
12703;SDS011;6416;52.182;7.650;2023-11-19T10:02:18;22.57;;;4.97;;
12703;SDS011;6416;52.182;7.650;2023-11-19T10:04:43;22.23;;;4.67;;
12703;SDS011;6416;52.182;7.650;2023-11-19T10:07:11;21.67;;;5.47;;
12703;SDS011;6416;52.182;7.650;2023-11-19T10:09:36;17.60;;;4.83;;
12703;SDS011;6416;52.182;7.650;2023-11-19T10:12:02;20.37;;;4.77;;
12703;SDS011;6416;52.182;7.650;2023-11-19T10:14:28;19.40;;;5.00;;
12703;SDS011;6416;52.182;7.650;2023-11-19T10:16:56;20.10;;;4.70;;
12703;SDS011;6416;52.182;7.650;2023-11-19T10:19:21;18.23;;;5.40;;
12703;SDS011;6416;52.182;7.650;2023-11-19T10:21:47;18.83;;;5.00;;
12703;SDS011;6416;52.182;7.650;2023-11-19T10:24:12;16.63;;;4.80;;
12703;SDS011;6416;52.182;7.650;2023-11-19T10:26:38;14.47;;;4.23;;
12703;SDS011;6416;52.182;7.650;2023-11-19T10:29:05;15.07;;;4.30;;
12703;SDS011;6416;52.182;7.650;2023-11-19T10:31:30;17.57;;;4.37;;
12703;SDS011;6416;52.182;7.650;2023-11-19T10:33:56;17.77;;;4.80;;
12703;SDS011;6416;52.182;7.650;2023-11-19T10:36:21;17.03;;;4.83;;
12703;SDS011;6416;52.182;7.650;2023-11-19T10:38:53;18.87;;;4.87;;
12703;SDS011;6416;52.182;7.650;2023-11-19T10:41:26;18.33;;;5.10;;
12703;SDS011;6416;52.182;7.650;2023-11-19T10:43:55;17.60;;;4.70;;
12703;SDS011;6416;52.182;7.650;2023-11-19T10:46:20;13.47;;;4.20;;
12703;SDS011;6416;52.182;7.650;2023-11-19T10:48:46;23.10;;;5.27;;
12703;SDS011;6416;52.182;7.650;2023-11-19T10:51:11;19.03;;;4.53;;
12703;SDS011;6416;52.182;7.650;2023-11-19T10:53:42;16.03;;;4.43;;
12703;SDS011;6416;52.182;7.650;2023-11-19T10:56:10;14.43;;;4.13;;
12703;SDS011;6416;52.182;7.650;2023-11-19T10:58:36;17.07;;;4.93;;
12703;SDS011;6416;52.182;7.650;2023-11-19T11:01:02;20.70;;;4.27;;
12703;SDS011;6416;52.182;7.650;2023-11-19T11:03:33;18.10;;;4.37;;
12703;SDS011;6416;52.182;7.650;2023-11-19T11:06:04;19.87;;;4.77;;
12703;SDS011;6416;52.182;7.650;2023-11-19T11:08:31;22.83;;;5.40;;
12703;SDS011;6416;52.182;7.650;2023-11-19T11:11:00;13.97;;;3.90;;
12703;SDS011;6416;52.182;7.650;2023-11-19T11:13:28;18.97;;;4.67;;
12703;SDS011;6416;52.182;7.650;2023-11-19T11:15:55;19.10;;;5.10;;
12703;SDS011;6416;52.182;7.650;2023-11-19T11:18:21;22.03;;;5.57;;
12703;SDS011;6416;52.182;7.650;2023-11-19T11:20:47;20.67;;;5.03;;
12703;SDS011;6416;52.182;7.650;2023-11-19T11:31:24;20.70;;;5.50;;
12703;SDS011;6416;52.182;7.650;2023-11-19T11:37:31;23.03;;;5.17;;
12703;SDS011;6416;52.182;7.650;2023-11-19T11:39:34;17.37;;;4.40;;
12703;SDS011;6416;52.182;7.650;2023-11-19T11:50:16;15.53;;;4.47;;
12703;SDS011;6416;52.182;7.650;2023-11-19T11:55:26;18.07;;;4.83;;
12703;SDS011;6416;52.182;7.650;2023-11-19T11:57:53;17.40;;;5.10;;
12703;SDS011;6416;52.182;7.650;2023-11-19T12:00:37;17.50;;;5.17;;
12703;SDS011;6416;52.182;7.650;2023-11-19T12:03:04;14.73;;;4.87;;
12703;SDS011;6416;52.182;7.650;2023-11-19T12:05:32;17.93;;;4.73;;
12703;SDS011;6416;52.182;7.650;2023-11-19T12:08:03;14.43;;;4.70;;
12703;SDS011;6416;52.182;7.650;2023-11-19T12:10:30;17.90;;;5.23;;
12703;SDS011;6416;52.182;7.650;2023-11-19T12:12:59;16.73;;;4.33;;
12703;SDS011;6416;52.182;7.650;2023-11-19T12:15:26;21.53;;;6.17;;
12703;SDS011;6416;52.182;7.650;2023-11-19T12:17:52;17.83;;;5.20;;
12703;SDS011;6416;52.182;7.650;2023-11-19T12:20:18;11.77;;;4.40;;
12703;SDS011;6416;52.182;7.650;2023-11-19T12:22:45;19.03;;;5.13;;
12703;SDS011;6416;52.182;7.650;2023-11-19T12:25:12;16.37;;;4.67;;
12703;SDS011;6416;52.182;7.650;2023-11-19T12:27:48;19.03;;;5.17;;
12703;SDS011;6416;52.182;7.650;2023-11-19T12:30:25;16.73;;;5.00;;
12703;SDS011;6416;52.182;7.650;2023-11-19T12:32:51;16.70;;;5.17;;
12703;SDS011;6416;52.182;7.650;2023-11-19T12:35:17;15.47;;;4.83;;
12703;SDS011;6416;52.182;7.650;2023-11-19T12:37:43;15.20;;;4.90;;
12703;SDS011;6416;52.182;7.650;2023-11-19T12:40:20;16.30;;;4.70;;
12703;SDS011;6416;52.182;7.650;2023-11-19T12:42:51;14.13;;;4.53;;
12703;SDS011;6416;52.182;7.650;2023-11-19T12:45:17;15.40;;;4.20;;
12703;SDS011;6416;52.182;7.650;2023-11-19T12:47:43;14.30;;;4.83;;
12703;SDS011;6416;52.182;7.650;2023-11-19T12:50:09;15.20;;;4.57;;
12703;SDS011;6416;52.182;7.650;2023-11-19T12:52:35;16.40;;;4.63;;
12703;SDS011;6416;52.182;7.650;2023-11-19T12:55:01;16.57;;;4.23;;
12703;SDS011;6416;52.182;7.650;2023-11-19T12:57:38;14.70;;;4.73;;
12703;SDS011;6416;52.182;7.650;2023-11-19T13:00:07;13.90;;;4.00;;
12703;SDS011;6416;52.182;7.650;2023-11-19T13:02:56;16.27;;;4.07;;
12703;SDS011;6416;52.182;7.650;2023-11-19T13:07:57;23.47;;;4.23;;
12703;SDS011;6416;52.182;7.650;2023-11-19T13:10:30;16.13;;;4.77;;
12703;SDS011;6416;52.182;7.650;2023-11-19T13:13:03;16.10;;;4.40;;
12703;SDS011;6416;52.182;7.650;2023-11-19T13:15:29;19.77;;;5.13;;
12703;SDS011;6416;52.182;7.650;2023-11-19T13:17:54;16.63;;;4.33;;
12703;SDS011;6416;52.182;7.650;2023-11-19T13:20:20;13.90;;;4.37;;
12703;SDS011;6416;52.182;7.650;2023-11-19T13:22:55;14.83;;;4.30;;
12703;SDS011;6416;52.182;7.650;2023-11-19T13:25:24;17.83;;;5.17;;
12703;SDS011;6416;52.182;7.650;2023-11-19T13:27:50;15.27;;;4.17;;
12703;SDS011;6416;52.182;7.650;2023-11-19T13:30:15;12.53;;;3.97;;
12703;SDS011;6416;52.182;7.650;2023-11-19T13:32:41;11.87;;;3.67;;
12703;SDS011;6416;52.182;7.650;2023-11-19T13:35:07;14.30;;;4.03;;
12703;SDS011;6416;52.182;7.650;2023-11-19T13:37:32;13.77;;;4.13;;
12703;SDS011;6416;52.182;7.650;2023-11-19T13:39:58;9.43;;;3.47;;
12703;SDS011;6416;52.182;7.650;2023-11-19T13:42:23;13.33;;;4.57;;
12703;SDS011;6416;52.182;7.650;2023-11-19T13:44:49;14.60;;;4.13;;
12703;SDS011;6416;52.182;7.650;2023-11-19T13:47:14;18.83;;;5.13;;
12703;SDS011;6416;52.182;7.650;2023-11-19T13:49:39;15.33;;;5.30;;
12703;SDS011;6416;52.182;7.650;2023-11-19T13:52:05;14.37;;;4.70;;
12703;SDS011;6416;52.182;7.650;2023-11-19T13:54:31;15.70;;;5.00;;
12703;SDS011;6416;52.182;7.650;2023-11-19T13:56:56;14.13;;;4.50;;
12703;SDS011;6416;52.182;7.650;2023-11-19T13:59:22;14.87;;;4.00;;
12703;SDS011;6416;52.182;7.650;2023-11-19T14:01:47;10.27;;;3.80;;
12703;SDS011;6416;52.182;7.650;2023-11-19T14:04:12;12.70;;;4.20;;
12703;SDS011;6416;52.182;7.650;2023-11-19T14:06:38;12.13;;;3.93;;
12703;SDS011;6416;52.182;7.650;2023-11-19T14:09:03;12.27;;;4.57;;
12703;SDS011;6416;52.182;7.650;2023-11-19T14:11:31;13.93;;;4.23;;
12703;SDS011;6416;52.182;7.650;2023-11-19T14:13:56;14.83;;;4.27;;
12703;SDS011;6416;52.182;7.650;2023-11-19T14:16:22;13.13;;;4.03;;
12703;SDS011;6416;52.182;7.650;2023-11-19T14:18:51;14.50;;;3.90;;
12703;SDS011;6416;52.182;7.650;2023-11-19T14:21:16;10.67;;;3.93;;
12703;SDS011;6416;52.182;7.650;2023-11-19T14:23:41;14.20;;;3.97;;
12703;SDS011;6416;52.182;7.650;2023-11-19T14:26:07;8.97;;;3.30;;
12703;SDS011;6416;52.182;7.650;2023-11-19T14:28:33;12.37;;;3.40;;
12703;SDS011;6416;52.182;7.650;2023-11-19T14:30:58;9.87;;;3.70;;
12703;SDS011;6416;52.182;7.650;2023-11-19T14:33:23;8.90;;;3.00;;
12703;SDS011;6416;52.182;7.650;2023-11-19T14:35:49;12.57;;;3.17;;
12703;SDS011;6416;52.182;7.650;2023-11-19T14:38:14;10.87;;;3.40;;
12703;SDS011;6416;52.182;7.650;2023-11-19T14:40:40;9.73;;;3.27;;
12703;SDS011;6416;52.182;7.650;2023-11-19T14:43:05;13.30;;;3.60;;
12703;SDS011;6416;52.182;7.650;2023-11-19T14:45:31;13.30;;;4.07;;
12703;SDS011;6416;52.182;7.650;2023-11-19T14:47:56;11.00;;;3.30;;
12703;SDS011;6416;52.182;7.650;2023-11-19T14:50:22;11.87;;;3.43;;
12703;SDS011;6416;52.182;7.650;2023-11-19T14:52:47;12.93;;;3.73;;
12703;SDS011;6416;52.182;7.650;2023-11-19T14:55:13;11.93;;;3.63;;
12703;SDS011;6416;52.182;7.650;2023-11-19T14:57:38;9.60;;;2.93;;
12703;SDS011;6416;52.182;7.650;2023-11-19T15:00:04;13.83;;;4.00;;
12703;SDS011;6416;52.182;7.650;2023-11-19T15:02:30;11.57;;;4.10;;
12703;SDS011;6416;52.182;7.650;2023-11-19T15:04:55;10.67;;;3.77;;
12703;SDS011;6416;52.182;7.650;2023-11-19T15:07:21;10.20;;;2.77;;
12703;SDS011;6416;52.182;7.650;2023-11-19T15:09:46;13.47;;;3.57;;
12703;SDS011;6416;52.182;7.650;2023-11-19T15:12:12;14.13;;;3.73;;